Time;durP1;ratioP1;P1;durP2;ratioP2;P2;SDS_P1;SDS_P2;PMS_P1;PMS_P2;Temp;Humidity;BMP_temperature;BMP_pressure;BME280_temperature;BME280_humidity;BME280_pressure;Samples;Min_cycle;Max_cycle;Signal;HPM_P1;HPM_P2
2022/09/28 00:00:05;;;;;;;1.60;0.57;;;;;;;14.00;50.25;96897.59;5059306;28;20071;-59
2022/09/28 00:02:31;;;;;;;1.02;0.35;;;;;;;14.31;50.48;96958.78;5093772;27;20040;-58
2022/09/28 00:04:56;;;;;;;1.48;0.50;;;;;;;14.22;51.70;96951.19;5060674;28;20028;-58
2022/09/28 00:07:22;;;;;;;1.50;0.50;;;;;;;13.94;51.57;96909.69;5068075;28;20036;-58
2022/09/28 00:09:47;;;;;;;1.10;0.50;;;;;;;14.22;51.71;96947.78;5061213;28;20120;-59
2022/09/28 00:12:13;;;;;;;1.95;0.45;;;;;;;13.94;52.58;96895.84;5064100;28;20044;-58
2022/09/28 00:14:39;;;;;;;0.98;0.40;;;;;;;14.19;52.82;96941.16;5069608;28;20178;-58
2022/09/28 00:17:05;;;;;;;1.13;0.50;;;;;;;14.22;51.97;96947.78;5071677;28;20354;-58
2022/09/28 00:19:30;;;;;;;1.27;0.40;;;;;;;14.15;52.17;96952.25;5069312;28;20075;-58
2022/09/28 00:21:55;;;;;;;1.15;0.50;;;;;;;14.10;51.90;96955.47;5066682;28;20031;-58
2022/09/28 00:24:21;;;;;;;1.65;0.50;;;;;;;14.08;52.08;96947.03;5055027;28;20031;-58
2022/09/28 00:26:55;;;;;;;1.73;0.47;;;;;;;13.70;52.70;96913.81;5072204;28;20491;-58
2022/09/28 00:29:35;;;;;;;1.15;0.40;;;;;;;13.79;52.68;96909.94;5074056;28;20039;-59
2022/09/28 00:32:04;;;;;;;4.13;0.52;;;;;;;13.90;53.18;96946.91;5050287;28;20113;-59
2022/09/28 00:34:36;;;;;;;1.45;0.40;;;;;;;13.87;53.74;96955.16;5073969;28;20024;-58
2022/09/28 00:37:04;;;;;;;1.33;0.50;;;;;;;13.89;53.83;96959.19;5082471;28;20025;-58
2022/09/28 00:39:34;;;;;;;1.10;0.38;;;;;;;13.88;52.97;96959.38;5076613;28;20035;-58
2022/09/28 00:42:00;;;;;;;1.48;0.40;;;;;;;13.89;53.65;96964.41;5067051;28;20115;-58
2022/09/28 00:44:39;;;;;;;2.25;0.40;;;;;;;13.94;52.72;96964.56;5064139;28;20068;-58
2022/09/28 00:47:07;;;;;;;0.75;0.32;;;;;;;13.93;52.81;96970.00;5075270;28;20541;-59
2022/09/28 00:49:48;;;;;;;1.85;0.50;;;;;;;13.93;53.87;96973.44;5088644;28;20040;-59
2022/09/28 00:52:16;;;;;;;0.82;0.40;;;;;;;13.81;53.64;96964.59;5071274;28;20032;-58
2022/09/28 00:54:44;;;;;;;2.00;0.50;;;;;;;13.74;53.83;96946.34;5067072;28;20031;-58
2022/09/28 00:57:10;;;;;;;1.17;0.40;;;;;;;13.57;53.34;96901.59;5086462;28;20123;-59
2022/09/28 00:59:35;;;;;;;1.73;0.40;;;;;;;13.83;53.38;96937.25;5074351;28;20480;-58
2022/09/28 01:02:01;;;;;;;1.63;0.50;;;;;;;13.83;53.14;96939.06;5064143;28;20510;-59
2022/09/28 01:04:27;;;;;;;1.20;0.40;;;;;;;14.00;53.25;96942.03;5079701;27;20951;-58
2022/09/28 01:06:54;;;;;;;1.23;0.40;;;;;;;13.69;54.71;96911.41;5085969;28;20027;-58
2022/09/28 01:09:20;;;;;;;1.50;0.40;;;;;;;13.94;55.68;96951.50;5071218;28;20054;-59
2022/09/28 01:11:45;;;;;;;3.55;0.60;;;;;;;13.99;55.04;96941.22;5065428;28;20578;-58
2022/09/28 01:14:12;;;;;;;2.03;0.40;;;;;;;13.82;55.26;96913.97;5066051;28;20035;-58
2022/09/28 01:17:02;;;;;;;0.75;0.30;;;;;;;13.94;55.46;96940.25;5065047;28;20116;-59
2022/09/28 01:19:44;;;;;;;;;;;;;;;13.77;55.00;96947.75;5073454;28;20032;-59
2022/09/28 01:22:30;;;;;;;0.63;0.30;;;;;;;13.72;54.55;96940.53;5097438;27;19920;-59
2022/09/28 01:25:30;;;;;;;0.90;0.35;;;;;;;13.76;53.92;96946.13;5074895;28;20032;-59
2022/09/28 01:27:59;;;;;;;;;;;;;;;13.78;53.64;96951.94;5081467;28;20028;-59
2022/09/28 01:30:24;;;;;;;0.98;0.40;;;;;;;13.73;53.97;96925.66;5081857;28;21126;-58
2022/09/28 01:32:51;;;;;;;1.00;0.38;;;;;;;13.77;55.20;96942.53;5045944;28;20040;-58
2022/09/28 01:35:20;;;;;;;1.70;0.47;;;;;;;13.75;54.98;96932.28;5067051;28;20032;-59
2022/09/28 01:37:51;;;;;;;1.48;0.47;;;;;;;13.64;56.03;96923.25;5079642;27;20043;-58
2022/09/28 01:40:18;;;;;;;1.23;0.40;;;;;;;13.64;55.67;96923.25;5071206;28;20483;-59
2022/09/28 01:42:46;;;;;;;0.95;0.40;;;;;;;13.66;56.05;96907.41;5069133;28;20035;-59
2022/09/28 01:45:17;;;;;;;2.60;0.40;;;;;;;13.42;56.57;96882.75;5068645;28;20044;-59
2022/09/28 01:47:45;;;;;;;1.30;0.47;;;;;;;13.60;57.05;96921.28;5060279;28;20536;-59
2022/09/28 01:50:17;;;;;;;1.38;0.40;;;;;;;13.68;57.00;96928.09;5070513;28;20044;-58
2022/09/28 01:52:59;;;;;;;0.98;0.40;;;;;;;13.64;56.69;96918.03;5065462;28;20029;-59
2022/09/28 01:55:33;;;;;;;1.35;0.50;;;;;;;13.40;56.90;96874.34;5064561;28;20728;-58
2022/09/28 01:58:11;;;;;;;0.98;0.40;;;;;;;13.40;57.01;96874.34;5064177;28;20028;-58
2022/09/28 02:00:40;;;;;;;1.40;0.50;;;;;;;13.55;57.43;96901.00;5070387;28;20036;-57
2022/09/28 02:03:11;;;;;;;1.58;0.20;;;;;;;13.24;57.18;96854.66;5065379;28;20601;-59
2022/09/28 02:05:39;;;;;;;1.42;0.45;;;;;;;13.38;56.31;96863.28;5068909;28;20044;-58
2022/09/28 02:08:12;;;;;;;0.82;0.30;;;;;;;13.58;56.54;96899.78;5062202;28;20040;-58
2022/09/28 02:10:46;;;;;;;0.98;0.35;;;;;;;13.58;56.72;96902.38;5073385;28;20082;-59
2022/09/28 02:13:16;;;;;;;0.30;0.30;;;;;;;13.52;57.09;96908.44;5064145;28;20025;-58
2022/09/28 02:15:45;;;;;;;0.93;0.40;;;;;;;13.37;56.90;96866.91;5067964;28;20094;-58
2022/09/28 02:18:11;;;;;;;;;;;;;;;13.61;56.88;96907.19;5105875;27;20042;-58
2022/09/28 02:20:38;;;;;;;1.13;0.40;;;;;;;13.29;56.97;96857.47;5101307;27;19915;-59
2022/09/28 02:23:03;;;;;;;1.17;0.35;;;;;;;13.42;57.37;96870.50;5063811;28;20067;-59
2022/09/28 02:25:51;;;;;;;1.10;0.40;;;;;;;13.71;57.00;96899.75;5065807;28;20032;-59
2022/09/28 02:28:17;;;;;;;0.73;0.35;;;;;;;13.64;57.25;96884.09;5063656;28;20071;-58
2022/09/28 02:30:43;;;;;;;1.35;0.40;;;;;;;13.59;57.75;96883.91;5069182;28;20060;-59
2022/09/28 02:33:13;;;;;;;0.95;0.40;;;;;;;13.69;57.12;96911.41;5068811;28;20115;-58
2022/09/28 02:35:39;;;;;;;1.67;0.40;;;;;;;13.54;58.20;96911.66;5063946;28;20851;-59
2022/09/28 02:38:04;;;;;;;2.47;0.40;;;;;;;13.20;57.84;96856.09;5094046;27;20029;-58
2022/09/28 02:40:31;;;;;;;1.05;0.38;;;;;;;13.48;57.83;96913.25;5065471;28;20025;-58
2022/09/28 02:43:23;;;;;;;1.25;0.40;;;;;;;13.39;57.36;96911.88;5059265;28;20044;-59
2022/09/28 02:46:03;;;;;;;1.35;0.50;;;;;;;13.38;57.70;96915.47;5074880;28;20024;-58
2022/09/28 02:49:11;;;;;;;0.88;0.30;;;;;;;13.45;56.80;96921.50;5068312;28;20031;-60
2022/09/28 02:51:59;;;;;;;0.60;0.30;;;;;;;13.40;57.41;96911.69;5067624;28;20043;-58
2022/09/28 02:54:52;;;;;;;1.30;0.40;;;;;;;13.11;57.60;96875.56;5072056;28;20037;-58
2022/09/28 02:57:57;;;;;;;1.45;0.50;;;;;;;13.38;57.59;96916.31;5069844;28;20032;-59
2022/09/28 03:00:23;;;;;;;0.93;0.40;;;;;;;13.26;58.29;96878.75;5078957;28;20483;-58
2022/09/28 03:03:03;;;;;;;2.88;0.57;;;;;;;13.46;57.76;96907.44;5057228;28;20034;-58
2022/09/28 03:05:42;;;;;;;0.80;0.30;;;;;;;13.49;57.68;96899.22;5073088;28;20104;-58
2022/09/28 03:08:21;;;;;;;0.50;0.20;;;;;;;13.43;57.71;96887.78;5061529;28;20115;-58
2022/09/28 03:10:59;;;;;;;0.55;0.30;;;;;;;13.22;57.65;96859.28;5100990;27;20135;-58
2022/09/28 03:13:25;;;;;;;1.58;0.50;;;;;;;13.35;57.99;96877.56;5064329;28;20082;-59
2022/09/28 03:15:51;;;;;;;1.27;0.40;;;;;;;13.22;57.92;96862.69;5065661;28;20411;-58
2022/09/28 03:18:16;;;;;;;0.98;0.32;;;;;;;13.08;58.71;96850.66;5062691;28;20032;-58
2022/09/28 03:20:42;;;;;;;1.75;0.60;;;;;;;13.04;58.70;96852.09;5069484;28;20032;-58
2022/09/28 03:23:07;;;;;;;1.05;0.32;;;;;;;13.35;58.63;96885.38;5065804;28;20037;-58
2022/09/28 03:25:33;;;;;;;1.25;0.40;;;;;;;13.31;58.76;96889.41;5067427;28;20032;-59
2022/09/28 03:27:58;;;;;;;1.60;0.40;;;;;;;13.35;58.67;96900.25;5062739;28;20029;-59
2022/09/28 03:30:23;;;;;;;1.48;0.40;;;;;;;13.06;58.56;96860.50;5066317;28;20725;-58
2022/09/28 03:32:59;;;;;;;0.75;0.32;;;;;;;13.30;58.74;96905.25;5067427;28;20031;-59
2022/09/28 03:35:25;;;;;;;0.63;0.30;;;;;;;13.32;58.08;96914.50;5068714;28;20109;-58
2022/09/28 03:37:54;;;;;;;0.90;0.32;;;;;;;13.27;58.35;96920.31;5097767;27;20063;-58
2022/09/28 03:40:19;;;;;;;;;;;;;;;13.30;58.12;96926.13;5074058;28;20418;-58
2022/09/28 03:42:45;;;;;;;0.30;0.20;;;;;;;13.09;58.17;96883.59;5065812;28;19919;-59
2022/09/28 03:45:11;;;;;;;1.17;0.47;;;;;;;13.31;58.88;96915.50;5068226;28;20620;-58
2022/09/28 03:47:36;;;;;;;1.45;0.40;;;;;;;13.24;58.94;96906.88;5070161;28;20043;-58
2022/09/28 03:50:01;;;;;;;0.95;0.40;;;;;;;13.24;58.86;96912.88;5066260;28;20025;-59
2022/09/28 03:52:27;;;;;;;1.83;0.50;;;;;;;13.27;58.75;96907.25;5079594;28;20040;-58
2022/09/28 03:54:52;;;;;;;1.33;0.50;;;;;;;13.37;59.51;96916.50;5065584;28;20025;-58
2022/09/28 03:57:17;;;;;;;0.85;0.32;;;;;;;13.45;58.84;96904.03;5097543;27;20033;-58
2022/09/28 03:59:43;;;;;;;2.25;0.60;;;;;;;13.12;57.92;96867.50;5069932;28;20103;-59
2022/09/28 04:02:08;;;;;;;2.00;0.60;;;;;;;13.28;58.41;96906.22;5068838;28;20067;-58
2022/09/28 04:04:33;;;;;;;1.23;0.40;;;;;;;12.95;58.71;96868.97;5071891;28;20032;-58
2022/09/28 04:06:59;;;;;;;0.95;0.40;;;;;;;12.55;59.02;96816.81;5083101;28;20032;-58
2022/09/28 04:09:24;;;;;;;1.30;0.38;;;;;;;13.12;58.95;96913.69;5068171;28;20511;-58
2022/09/28 04:11:50;;;;;;;1.70;0.73;;;;;;;13.04;58.91;96892.03;5068050;28;20032;-59
2022/09/28 04:14:15;;;;;;;1.40;0.50;;;;;;;13.10;59.30;96908.66;5070431;28;20112;-58
2022/09/28 04:16:40;;;;;;;2.38;0.45;;;;;;;13.16;59.47;96909.66;5070050;28;20028;-58
2022/09/28 04:19:06;;;;;;;1.88;0.40;;;;;;;13.16;59.10;96905.28;5068178;28;20331;-58
2022/09/28 04:21:31;;;;;;;2.13;0.57;;;;;;;13.16;59.45;96900.06;5096355;27;20731;-59
2022/09/28 04:23:58;;;;;;;1.17;0.40;;;;;;;13.25;59.73;96911.88;5071113;28;20039;-59
2022/09/28 04:26:25;;;;;;;1.73;0.50;;;;;;;13.25;59.53;96905.84;5098950;27;20162;-59
2022/09/28 04:31:44;;;;;;;1.83;0.50;;;;;;;13.36;59.62;96918.31;5066186;28;20084;-59
2022/09/28 04:34:10;;;;;;;2.03;0.70;;;;;;;13.28;60.03;96911.44;5070057;28;20029;-58
2022/09/28 04:36:36;;;;;;;1.05;0.40;;;;;;;13.23;60.19;96900.84;5068769;28;20711;-58
2022/09/28 04:39:01;;;;;;;2.22;0.43;;;;;;;13.16;60.94;96900.06;5074498;28;20372;-58
2022/09/28 04:41:27;;;;;;;1.40;0.40;;;;;;;13.04;60.48;96875.56;5063823;28;20024;-58
2022/09/28 04:43:52;;;;;;;1.33;0.43;;;;;;;13.22;60.80;96914.09;5075546;28;20359;-58
2022/09/28 04:46:18;;;;;;;2.72;0.57;;;;;;;13.14;60.99;96907.28;5067463;28;20051;-59
2022/09/28 04:48:44;;;;;;;1.98;0.50;;;;;;;13.27;60.70;96920.31;5075068;28;20082;-58
2022/09/28 04:51:09;;;;;;;2.53;0.60;;;;;;;13.26;61.02;96921.28;5072539;28;20036;-58
2022/09/28 04:53:35;;;;;;;1.45;0.50;;;;;;;13.31;61.04;96933.78;5067320;28;20332;-57
2022/09/28 04:56:09;;;;;;;1.60;0.50;;;;;;;13.06;60.99;96905.66;5069489;28;20509;-59
2022/09/28 04:58:34;;;;;;;2.47;0.60;;;;;;;13.32;61.20;96929.34;5073304;28;20592;-59
2022/09/28 05:01:02;;;;;;;1.42;0.50;;;;;;;13.30;61.44;96929.53;5068885;28;20075;-58
2022/09/28 05:03:28;;;;;;;1.42;0.50;;;;;;;13.30;61.16;96923.50;5072614;28;20028;-59
2022/09/28 05:05:53;;;;;;;1.77;0.50;;;;;;;13.27;61.40;96917.69;5067640;28;20028;-58
2022/09/28 05:08:19;;;;;;;2.22;0.50;;;;;;;13.26;62.01;96925.72;5064391;28;20639;-58
2022/09/28 05:10:44;;;;;;;1.30;0.50;;;;;;;13.20;61.74;96916.91;5063816;28;20059;-57
2022/09/28 05:13:11;;;;;;;1.75;0.60;;;;;;;13.22;61.55;96920.09;5072403;28;20039;-58
2022/09/28 05:15:38;;;;;;;1.73;0.50;;;;;;;13.21;61.26;96915.88;5059340;28;20470;-58
2022/09/28 05:18:03;;;;;;;1.90;0.50;;;;;;;13.19;61.22;96920.50;5070494;28;20074;-58
2022/09/28 05:20:29;;;;;;;2.50;0.80;;;;;;;13.20;61.50;96919.50;5080743;28;20425;-58
2022/09/28 05:22:55;;;;;;;1.85;0.50;;;;;;;13.12;61.66;96914.47;5061266;28;20243;-58
2022/09/28 05:25:21;;;;;;;1.23;0.40;;;;;;;12.90;61.30;96877.38;5067705;28;20078;-58
2022/09/28 05:27:46;;;;;;;1.33;0.40;;;;;;;13.14;62.24;96916.91;5072946;28;20024;-58
2022/09/28 05:30:12;;;;;;;1.30;0.40;;;;;;;13.12;62.06;96917.09;5059832;28;20035;-58
2022/09/28 05:32:40;;;;;;;1.13;0.50;;;;;;;13.08;62.58;96908.06;5060530;28;20032;-59
2022/09/28 05:35:07;;;;;;;1.67;0.60;;;;;;;13.11;62.74;96905.06;5007395;28;20035;-58
2022/09/28 05:37:32;;;;;;;3.75;0.70;;;;;;;13.13;61.82;96903.06;5074334;28;20090;-59
2022/09/28 05:39:57;;;;;;;1.83;0.57;;;;;;;12.96;61.82;96878.38;5063528;28;20358;-58
2022/09/28 05:42:23;;;;;;;1.70;0.50;;;;;;;13.12;61.61;96903.25;5065718;28;20522;-59
2022/09/28 05:44:48;;;;;;;2.92;0.55;;;;;;;13.12;61.21;96903.25;5067310;28;20054;-59
2022/09/28 05:47:13;;;;;;;2.22;0.70;;;;;;;12.97;61.67;96859.91;5070479;28;20065;-58
2022/09/28 05:49:39;;;;;;;2.92;0.80;;;;;;;12.82;62.34;96857.53;5072502;28;20594;-58
2022/09/28 05:52:04;;;;;;;2.17;0.60;;;;;;;13.06;62.19;96902.25;5062414;28;20094;-59
2022/09/28 05:54:30;;;;;;;1.98;0.50;;;;;;;13.08;62.49;96895.81;5062655;28;20107;-58
2022/09/28 05:56:55;;;;;;;1.70;0.57;;;;;;;13.11;61.64;96907.69;5076509;28;20112;-57
2022/09/28 05:59:20;;;;;;;1.15;0.40;;;;;;;13.11;61.51;96899.84;5063561;28;20024;-58
2022/09/28 06:01:46;;;;;;;1.65;0.50;;;;;;;12.85;61.78;96864.13;5062685;28;20146;-58
2022/09/28 06:04:11;;;;;;;1.88;0.63;;;;;;;12.82;61.29;96852.31;5068070;28;20463;-58
2022/09/28 06:06:37;;;;;;;1.20;0.50;;;;;;;13.16;59.97;96894.84;5061866;28;20028;-58
2022/09/28 06:09:03;;;;;;;1.75;0.50;;;;;;;13.16;60.26;96894.84;5096349;27;20031;-58
2022/09/28 06:11:30;;;;;;;1.80;0.60;;;;;;;13.24;60.20;96897.22;5064093;28;20028;-57
2022/09/28 06:13:55;;;;;;;1.13;0.40;;;;;;;13.27;60.70;96899.44;5049366;27;20024;-58
2022/09/28 06:16:21;;;;;;;2.25;0.52;;;;;;;13.21;61.13;96905.44;5062933;28;20562;-57
2022/09/28 06:18:47;;;;;;;1.77;0.55;;;;;;;13.19;61.49;96904.84;5065427;28;20037;-58
2022/09/28 06:21:12;;;;;;;1.92;0.60;;;;;;;13.25;61.94;96893.63;5066892;28;20816;-58
2022/09/28 06:23:37;;;;;;;1.80;0.60;;;;;;;13.34;61.90;96894.22;5062606;28;20417;-58
2022/09/28 06:26:03;;;;;;;1.65;0.43;;;;;;;13.50;62.17;96906.03;5059930;28;20094;-57
2022/09/28 06:28:28;;;;;;;3.45;0.60;;;;;;;13.51;63.12;96907.66;5063968;28;20075;-58
2022/09/28 06:30:54;;;;;;;1.85;0.60;;;;;;;13.57;63.28;96912.03;4987424;28;20061;-57
2022/09/28 06:33:20;;;;;;;2.20;0.60;;;;;;;13.64;64.20;96910.22;5066948;28;20398;-58
2022/09/28 06:35:46;;;;;;;1.50;0.50;;;;;;;13.72;64.66;96911.78;5068033;28;20036;-58
2022/09/28 06:38:12;;;;;;;3.72;0.80;;;;;;;13.68;63.40;96902.75;5066581;28;20024;-58
2022/09/28 06:40:38;;;;;;;4.82;0.63;;;;;;;13.66;63.30;96904.78;5059302;28;20036;-58
2022/09/28 06:43:08;;;;;;;1.40;0.50;;;;;;;13.75;62.89;96921.03;5062458;28;20108;-57
2022/09/28 06:45:35;;;;;;;2.00;0.60;;;;;;;13.73;63.69;96910.78;5059683;28;20391;-58
2022/09/28 06:48:01;;;;;;;4.22;1.13;;;;;;;13.73;63.76;96916.00;4989808;27;20062;-58
2022/09/28 06:50:31;;;;;;;2.38;0.77;;;;;;;13.50;64.24;96876.50;5072065;28;20031;-57
2022/09/28 06:52:57;;;;;;;3.28;0.73;;;;;;;13.78;64.54;96910.97;5068054;28;20104;-57
2022/09/28 06:55:22;;;;;;;4.65;0.80;;;;;;;13.77;65.00;96909.38;5066914;28;20059;-57
2022/09/28 06:57:57;;;;;;;3.97;0.80;;;;;;;13.79;64.33;96903.94;5057652;28;20032;-58
2022/09/28 07:00:22;;;;;;;5.13;1.00;;;;;;;13.80;65.74;96924.63;5065480;28;20498;-57
2022/09/28 07:02:47;;;;;;;2.65;0.60;;;;;;;13.72;62.23;96918.81;5063318;28;20103;-58
2022/09/28 07:05:13;;;;;;;3.60;0.50;;;;;;;13.72;62.28;96927.47;5033809;28;20414;-56
2022/09/28 07:07:39;;;;;;;1.88;0.50;;;;;;;13.65;62.66;96932.72;5036949;28;20113;-57
2022/09/28 07:10:05;;;;;;;2.22;0.60;;;;;;;13.41;62.85;96904.66;5069991;28;20052;-56
2022/09/28 07:12:34;;;;;;;2.42;0.65;;;;;;;13.57;62.96;96945.97;5060211;28;20032;-58
2022/09/28 07:14:59;;;;;;;2.28;0.60;;;;;;;13.51;64.29;96938.16;5074007;28;20029;-57
2022/09/28 07:17:24;;;;;;;1.88;0.55;;;;;;;13.64;63.68;96948.59;5064862;28;20024;-57
2022/09/28 07:19:51;;;;;;;2.65;0.52;;;;;;;13.57;63.42;96951.22;5074166;28;20075;-58
2022/09/28 07:22:18;;;;;;;2.92;0.50;;;;;;;13.50;63.76;96941.78;5099522;27;20485;-58
2022/09/28 07:24:43;;;;;;;2.70;0.55;;;;;;;13.19;64.56;96901.44;5062646;28;20119;-58
2022/09/28 07:27:09;;;;;;;1.17;0.45;;;;;;;13.60;65.15;96957.84;4981554;28;20056;-58
2022/09/28 07:29:34;;;;;;;3.50;0.52;;;;;;;13.59;63.71;96946.56;5063762;28;20342;-58
2022/09/28 07:32:00;;;;;;;4.15;0.70;;;;;;;13.50;64.01;96941.78;5071574;28;20027;-58
2022/09/28 07:34:25;;;;;;;2.85;0.70;;;;;;;13.57;63.21;96953.81;5066682;28;20114;-58
2022/09/28 07:36:57;;;;;;;1.33;0.40;;;;;;;13.62;62.86;96954.00;5104091;27;20036;-57
2022/09/28 07:39:23;;;;;;;2.25;0.63;;;;;;;13.43;63.04;96931.34;5071004;28;20035;-57
2022/09/28 07:41:48;;;;;;;1.42;0.60;;;;;;;13.64;62.87;96946.78;5066028;28;20036;-57
2022/09/28 07:44:14;;;;;;;2.20;0.60;;;;;;;13.60;63.51;96944.78;5065940;28;20471;-58
2022/09/28 07:46:39;;;;;;;2.13;0.70;;;;;;;13.75;62.52;96945.34;4958011;28;20428;-57
2022/09/28 07:49:05;;;;;;;3.10;0.60;;;;;;;13.52;62.80;96909.22;5072903;28;20874;-57
2022/09/28 07:51:31;;;;;;;2.45;0.70;;;;;;;13.61;62.49;96908.00;5065134;28;20540;-57
2022/09/28 07:53:57;;;;;;;1.98;0.50;;;;;;;13.66;63.46;96912.63;5065727;28;20778;-57
2022/09/28 07:56:22;;;;;;;1.90;0.60;;;;;;;13.98;63.14;96951.88;5067635;28;20044;-57
2022/09/28 07:58:51;;;;;;;1.63;0.60;;;;;;;14.01;62.44;96965.34;5098193;27;20638;-57
2022/09/28 08:01:17;;;;;;;1.80;0.50;;;;;;;14.00;62.58;96957.69;5067793;28;20509;-57
2022/09/28 08:03:44;;;;;;;1.80;0.60;;;;;;;14.09;61.27;96964.34;5054005;28;20518;-58
2022/09/28 08:06:11;;;;;;;2.75;0.80;;;;;;;14.18;61.90;96951.81;5019953;28;20590;-57
2022/09/28 08:08:38;;;;;;;3.03;0.93;;;;;;;14.17;61.93;96952.84;5070256;28;20024;-57
2022/09/28 08:11:09;;;;;;;3.20;0.88;;;;;;;14.22;61.77;96961.66;5066300;28;20028;-57
2022/09/28 08:13:34;;;;;;;7.75;0.80;;;;;;;14.24;61.88;96953.59;5067542;28;20035;-57
2022/09/28 08:16:01;;;;;;;3.85;0.70;;;;;;;14.20;61.64;96931.50;5067357;28;20542;-57
2022/09/28 08:18:26;;;;;;;1.52;0.50;;;;;;;14.42;60.11;96955.53;5055527;28;20028;-57
2022/09/28 08:23:37;;;;;;;3.50;1.10;;;;;;;14.46;60.30;96951.47;5079397;28;20410;-57
2022/09/28 08:26:03;;;;;;;3.22;1.08;;;;;;;14.56;61.38;96951.00;5020024;28;20055;-57
2022/09/28 08:28:28;;;;;;;4.50;1.80;;;;;;;14.45;61.61;96947.25;5063402;28;20020;-58
2022/09/28 08:30:54;;;;;;;3.80;1.33;;;;;;;14.62;61.96;96963.31;5065551;28;20040;-57
2022/09/28 08:33:22;;;;;;;2.75;0.93;;;;;;;14.58;61.31;96967.31;5071710;28;20021;-58
2022/09/28 08:35:57;;;;;;;4.10;0.80;;;;;;;14.55;60.46;96970.34;5091412;27;20624;-57
2022/09/28 08:38:24;;;;;;;4.68;0.70;;;;;;;14.64;60.75;96958.66;5066285;28;20100;-57
2022/09/28 08:41:14;;;;;;;2.55;0.65;;;;;;;14.66;59.51;96953.19;5064996;28;20020;-57
2022/09/28 08:44:09;;;;;;;1.95;0.60;;;;;;;14.73;60.29;96961.78;5057657;28;20161;-58
2022/09/28 08:46:37;;;;;;;1.00;0.40;;;;;;;14.51;59.76;96938.59;5018300;28;20744;-56
2022/09/28 08:49:29;;;;;;;1.35;0.47;;;;;;;14.75;60.53;96963.22;5073351;28;20024;-57
2022/09/28 08:51:59;;;;;;;2.33;0.52;;;;;;;14.82;60.92;96944.03;5067093;28;20691;-57
2022/09/28 08:54:27;;;;;;;;;;;;;;;14.74;59.65;96940.66;5097644;27;20031;-57
2022/09/28 08:56:56;;;;;;;1.42;0.50;;;;;;;14.79;60.09;96945.28;5104598;27;20649;-58
2022/09/28 08:59:41;;;;;;;1.20;0.50;;;;;;;14.58;61.19;96918.44;5065397;28;20025;-57
2022/09/28 09:02:13;;;;;;;4.90;0.80;;;;;;;14.75;61.01;96921.34;5065852;28;20115;-57
2022/09/28 09:04:39;;;;;;;2.33;0.60;;;;;;;14.94;61.12;96937.91;5063286;28;20016;-58
2022/09/28 09:07:38;;;;;;;2.20;0.55;;;;;;;14.73;58.88;96907.69;5071667;28;20043;-60
2022/09/28 09:10:52;;;;;;;1.55;0.40;;;;;;;15.02;59.65;96941.25;5063722;28;20086;-58
2022/09/28 09:13:43;;;;;;;1.10;0.50;;;;;;;15.04;59.09;96932.22;5067730;28;20095;-58
2022/09/28 09:16:29;;;;;;;2.22;0.60;;;;;;;14.98;59.55;96928.59;5067285;28;20070;-58
2022/09/28 09:19:05;;;;;;;3.50;0.60;;;;;;;14.91;60.14;96913.97;5065555;28;20035;-58
2022/09/28 09:21:40;;;;;;;1.40;0.60;;;;;;;14.75;59.07;96882.09;5075535;28;20787;-57
2022/09/28 09:24:17;;;;;;;1.38;0.50;;;;;;;15.05;58.61;96915.47;4977960;28;21319;-58
2022/09/28 09:26:43;;;;;;;2.45;0.60;;;;;;;15.19;58.02;96918.78;5064241;28;20028;-57
2022/09/28 09:29:12;;;;;;;2.30;0.55;;;;;;;15.28;57.36;96921.94;5097050;27;20020;-57
2022/09/28 09:32:01;;;;;;;5.72;0.70;;;;;;;15.33;56.28;96911.59;5071691;28;20016;-57
2022/09/28 09:34:42;;;;;;;2.42;0.63;;;;;;;15.24;55.88;96907.66;5069657;28;20028;-57
2022/09/28 09:37:15;;;;;;;1.33;0.50;;;;;;;15.38;55.64;96915.16;5072288;28;20099;-57
2022/09/28 09:40:06;;;;;;;3.33;0.70;;;;;;;15.42;55.53;96904.25;5067415;28;20025;-58
2022/09/28 09:42:54;;;;;;;2.05;0.50;;;;;;;15.60;54.85;96906.09;5061660;28;20028;-58
2022/09/28 09:45:34;;;;;;;2.55;0.60;;;;;;;15.62;54.68;96909.28;5027704;28;20028;-58
2022/09/28 09:48:07;;;;;;;3.70;0.80;;;;;;;15.81;54.52;96912.72;5064192;28;20028;-57
2022/09/28 09:50:42;;;;;;;1.70;0.50;;;;;;;15.52;53.47;96881.78;5067026;28;20034;-58
2022/09/28 09:53:23;;;;;;;1.58;0.63;;;;;;;15.80;53.75;96901.44;5077902;28;20022;-57
2022/09/28 09:55:56;;;;;;;1.58;0.55;;;;;;;15.99;52.92;96904.03;5062811;28;20038;-57
2022/09/28 09:58:28;;;;;;;3.03;0.90;;;;;;;16.09;53.09;96893.84;5065822;28;20079;-57
2022/09/28 10:01:04;;;;;;;4.55;0.98;;;;;;;16.14;52.59;96883.50;5059833;28;20107;-58
2022/09/28 10:03:32;;;;;;;2.17;0.73;;;;;;;16.20;50.99;96881.81;5066565;28;20017;-57
2022/09/28 10:06:16;;;;;;;2.65;0.90;;;;;;;16.27;51.15;96869.41;5062297;28;20154;-57
2022/09/28 10:08:48;;;;;;;1.80;0.57;;;;;;;16.22;50.65;96864.81;5062539;28;20029;-58
2022/09/28 10:11:20;;;;;;;2.22;0.70;;;;;;;16.33;50.26;96858.00;5063381;28;20131;-57
2022/09/28 10:13:48;;;;;;;2.38;0.60;;;;;;;16.29;48.28;96859.50;5065601;28;20097;-57
2022/09/28 10:16:16;;;;;;;2.65;0.50;;;;;;;15.93;48.48;96822.69;5082757;28;20044;-57
2022/09/28 10:18:41;;;;;;;2.13;0.65;;;;;;;15.99;48.83;96828.03;5070963;28;20408;-57
2022/09/28 10:21:12;;;;;;;2.00;0.60;;;;;;;16.32;47.43;96862.47;5094475;27;20207;-59
2022/09/28 10:23:38;;;;;;;2.28;0.70;;;;;;;16.31;46.99;96860.06;5067718;28;20031;-57
2022/09/28 10:26:12;;;;;;;1.75;0.68;;;;;;;16.36;47.25;96848.91;5065381;28;20514;-58
2022/09/28 10:29:00;;;;;;;1.40;0.50;;;;;;;16.24;47.92;96833.94;5067873;28;20047;-57
2022/09/28 10:31:40;;;;;;;1.70;0.57;;;;;;;16.39;49.14;96851.88;5066856;28;20056;-58
2022/09/28 10:34:07;;;;;;;2.03;0.60;;;;;;;16.39;49.44;96844.03;5062351;28;20343;-57
2022/09/28 10:36:45;;;;;;;2.00;0.60;;;;;;;16.54;50.62;96838.34;5064430;28;20028;-57
2022/09/28 10:39:33;;;;;;;1.38;0.50;;;;;;;16.72;50.26;96835.63;5061977;28;20028;-57
2022/09/28 10:42:02;;;;;;;2.42;0.80;;;;;;;16.82;47.99;96829.00;5062702;28;20059;-57
2022/09/28 10:44:29;;;;;;;2.83;0.75;;;;;;;16.91;49.11;96833.72;5086699;28;20605;-58
2022/09/28 10:46:57;;;;;;;2.38;0.73;;;;;;;16.94;46.59;96836.91;5051183;28;20035;-58
2022/09/28 10:49:23;;;;;;;1.67;0.60;;;;;;;16.90;46.82;96841.81;5064989;28;20035;-58
2022/09/28 10:51:57;;;;;;;3.50;0.95;;;;;;;16.97;45.79;96829.38;5058943;28;20467;-59
2022/09/28 10:54:26;;;;;;;3.35;0.90;;;;;;;17.17;44.63;96834.25;5070915;28;20074;-57
2022/09/28 10:56:53;;;;;;;3.20;0.90;;;;;;;16.97;44.64;96829.38;5065255;28;20081;-58
2022/09/28 10:59:22;;;;;;;3.72;1.00;;;;;;;16.91;44.87;96835.53;5060140;28;20568;-58
2022/09/28 11:01:52;;;;;;;3.50;1.00;;;;;;;17.02;43.94;96837.34;5066507;28;20036;-57
2022/09/28 11:04:21;;;;;;;2.30;0.77;;;;;;;16.94;44.46;96832.47;5050819;28;20546;-58
2022/09/28 11:06:46;;;;;;;2.20;0.82;;;;;;;16.86;45.31;96822.28;5069274;28;20607;-58
2022/09/28 11:09:30;;;;;;;2.35;0.70;;;;;;;16.82;44.75;96827.16;5067494;28;20028;-58
2022/09/28 11:11:57;;;;;;;2.45;0.75;;;;;;;16.57;45.73;96785.41;5062636;28;20044;-59
2022/09/28 11:14:42;;;;;;;2.13;0.60;;;;;;;16.92;46.83;96824.03;5050627;28;20438;-59
2022/09/28 11:17:40;;;;;;;2.20;0.77;;;;;;;16.99;46.00;96827.31;5064088;28;20061;-58
2022/09/28 11:20:31;;;;;;;2.40;0.80;;;;;;;17.24;45.90;96834.94;5068791;28;20035;-59
2022/09/28 11:23:28;;;;;;;3.90;0.98;;;;;;;17.36;46.63;96820.97;5067552;28;20032;-59
2022/09/28 11:26:05;;;;;;;2.45;0.93;;;;;;;17.46;46.62;96808.84;5050372;28;20557;-59
2022/09/28 11:28:33;;;;;;;2.80;0.98;;;;;;;17.38;46.78;96800.56;5079649;28;20032;-59
2022/09/28 11:31:00;;;;;;;3.13;0.93;;;;;;;17.14;47.14;96770.91;5061353;28;20772;-58
2022/09/28 11:33:32;;;;;;;2.47;0.88;;;;;;;17.45;46.38;96811.72;5061730;28;20028;-59
2022/09/28 11:36:14;;;;;;;2.33;0.90;;;;;;;17.53;45.25;96800.06;5065434;28;20113;-59
2022/09/28 11:38:54;;;;;;;3.10;1.40;;;;;;;17.49;44.73;96786.59;5061407;28;20233;-60
2022/09/28 11:41:46;;;;;;;2.78;0.82;;;;;;;17.51;43.62;96792.41;5064821;28;20068;-59
2022/09/28 11:44:36;;;;;;;3.30;1.10;;;;;;;17.31;42.56;96752.63;5060453;28;20036;-59
2022/09/28 11:47:39;;;;;;;2.10;0.90;;;;;;;17.67;43.79;96783.00;5066644;28;20601;-59
2022/09/28 11:50:26;;;;;;;3.85;1.02;;;;;;;17.63;45.31;96779.22;5062126;28;20047;-59
2022/09/28 11:53:08;;;;;;;3.08;1.10;;;;;;;17.65;43.30;96777.16;5049392;28;20033;-58
2022/09/28 11:55:35;;;;;;;4.03;1.15;;;;;;;17.77;44.85;96771.84;5032044;28;20033;-59